createdAt,value
2022-08-08T00:00:53.598Z,97522.00
2022-08-08T00:03:31.272Z,97519.47
2022-08-08T00:06:16.655Z,97520.88
2022-08-08T00:09:07.862Z,97517.84
2022-08-08T00:12:07.231Z,97517.28
2022-08-08T00:14:54.787Z,97520.78
2022-08-08T00:17:58.761Z,97528.97
2022-08-08T00:20:20.431Z,97531.03
2022-08-08T00:22:53.487Z,97540.41
2022-08-08T00:25:51.014Z,97538.72
2022-08-08T00:28:35.705Z,97540.91
2022-08-08T00:32:21.320Z,97531.50
2022-08-08T00:34:56.329Z,97524.75
2022-08-08T00:37:47.765Z,97527.31
2022-08-08T00:41:11.940Z,97539.13
2022-08-08T00:44:03.533Z,97527.41
2022-08-08T00:46:58.182Z,97525.84
2022-08-08T00:49:50.340Z,97528.38
2022-08-08T00:52:56.651Z,97527.78
2022-08-08T00:55:35.912Z,97530.19
2022-08-08T00:58:43.698Z,97521.25
2022-08-08T01:01:29.199Z,97526.81
2022-08-08T01:04:16.462Z,97531.63
2022-08-08T01:07:20.859Z,97524.41
2022-08-08T01:09:50.911Z,97526.59
2022-08-08T01:12:31.191Z,97523.06
2022-08-08T01:15:43.532Z,97522.25
2022-08-08T01:18:53.396Z,97515.88
2022-08-08T01:22:11.746Z,97513.56
2022-08-08T01:25:09.979Z,97510.22
2022-08-08T01:27:48.947Z,97515.16
2022-08-08T01:30:53.708Z,97509.94
2022-08-08T01:34:00.219Z,97510.16
2022-08-08T01:36:42.746Z,97506.31
2022-08-08T01:39:34.851Z,97512.72
2022-08-08T01:42:19.869Z,97515.63
2022-08-08T01:45:37.675Z,97511.03
2022-08-08T01:48:30.317Z,97511.41
2022-08-08T01:51:06.085Z,97506.03
2022-08-08T01:55:19.690Z,97505.44
2022-08-08T01:56:47.063Z,97512.16
2022-08-08T01:59:38.113Z,97515.56
2022-08-08T02:02:48.706Z,97512.63
2022-08-08T02:05:56.829Z,97517.16
2022-08-08T02:08:54.511Z,97522.88
2022-08-08T02:11:52.855Z,97521.47
2022-08-08T02:14:50.065Z,97525.56
2022-08-08T02:17:51.329Z,97530.53
2022-08-08T02:21:02.804Z,97527.09
2022-08-08T02:23:32.037Z,97526.34
2022-08-08T02:26:08.133Z,97525.59
2022-08-08T02:28:48.462Z,97522.25
2022-08-08T02:31:59.506Z,97530.44
2022-08-08T02:35:10.963Z,97522.25
2022-08-08T02:37:56.913Z,97523.69
2022-08-08T02:41:07.790Z,97522.00
2022-08-08T02:44:42.357Z,97523.41
2022-08-08T02:47:13.005Z,97523.25
2022-08-08T02:50:03.609Z,97524.66
2022-08-08T02:52:42.116Z,97528.56
2022-08-08T02:55:31.921Z,97526.28
2022-08-08T02:58:47.587Z,97529.78
2022-08-08T03:01:14.942Z,97532.66
2022-08-08T03:05:03.296Z,97537.56
2022-08-08T03:07:19.773Z,97535.16
2022-08-08T03:10:33.604Z,97540.13
2022-08-08T03:16:01.577Z,97533.13
2022-08-08T03:17:04.691Z,97531.47
2022-08-08T03:19:55.774Z,97534.28
2022-08-08T03:22:38.432Z,97534.31
2022-08-08T03:25:17.868Z,97531.25
2022-08-08T03:27:56.672Z,97541.06
2022-08-08T03:30:24.744Z,97545.00
2022-08-08T03:33:58.138Z,97544.47
2022-08-08T03:35:58.660Z,97542.34
2022-08-08T03:38:54.903Z,97549.00
2022-08-08T03:42:12.167Z,97549.34
2022-08-08T03:43:59.688Z,97549.13
2022-08-08T03:46:32.621Z,97550.28
2022-08-08T03:49:38.100Z,97560.22
2022-08-08T03:51:55.792Z,97557.03
2022-08-08T03:54:41.590Z,97560.31
2022-08-08T03:58:35.175Z,97558.09
2022-08-08T04:00:11.735Z,97563.28
2022-08-08T04:02:47.544Z,97561.78
2022-08-08T04:05:19.170Z,97560.84
2022-08-08T04:07:46.408Z,97560.97
2022-08-08T04:10:13.048Z,97560.72
2022-08-08T04:12:41.355Z,97552.94
2022-08-08T04:15:08.400Z,97569.53
2022-08-08T04:17:57.680Z,97565.91
2022-08-08T04:20:28.394Z,97569.50
2022-08-08T04:22:57.243Z,97576.59
2022-08-08T04:25:29.861Z,97573.22
2022-08-08T04:28:34.498Z,97564.75
2022-08-08T04:30:44.680Z,97572.00
2022-08-08T04:33:11.524Z,97577.88
2022-08-08T04:35:40.393Z,97578.63
2022-08-08T04:38:21.105Z,97583.84
2022-08-08T04:40:53.509Z,97599.50
2022-08-08T04:43:32.216Z,97593.19
2022-08-08T04:46:09.360Z,97594.00
2022-08-08T04:48:36.625Z,97599.84
2022-08-08T04:51:03.159Z,97600.72
2022-08-08T04:54:36.479Z,97595.66
2022-08-08T04:56:17.631Z,97606.19
2022-08-08T04:58:44.466Z,97605.53
2022-08-08T05:01:14.915Z,97607.06
2022-08-08T05:04:09.153Z,97604.88
2022-08-08T05:06:29.058Z,97598.03
2022-08-08T05:09:02.862Z,97594.81
2022-08-08T05:11:38.591Z,97599.38
2022-08-08T05:14:20.699Z,97608.72
2022-08-08T05:16:53.575Z,97598.50
2022-08-08T05:20:10.985Z,97607.50
2022-08-08T05:22:17.355Z,97614.88
2022-08-08T05:24:48.582Z,97613.75
2022-08-08T05:27:15.716Z,97618.03
2022-08-08T05:29:42.370Z,97615.22
2022-08-08T05:32:09.502Z,97625.19
2022-08-08T05:34:59.166Z,97613.66
2022-08-08T05:37:49.084Z,97618.91
2022-08-08T05:40:21.496Z,97616.31
2022-08-08T05:43:02.140Z,97616.41
2022-08-08T05:45:42.725Z,97629.03
2022-08-08T05:48:11.999Z,97626.50
2022-08-08T05:50:41.905Z,97630.34
2022-08-08T05:53:54.202Z,97633.16
2022-08-08T05:56:10.601Z,97630.50
2022-08-08T05:58:53.894Z,97626.88
2022-08-08T06:01:56.696Z,97628.22
2022-08-08T06:04:23.059Z,97635.25
2022-08-08T06:06:53.228Z,97626.81
2022-08-08T06:09:41.525Z,97634.13
2022-08-08T06:12:14.282Z,97631.75
2022-08-08T06:14:48.960Z,97641.59
2022-08-08T06:17:19.252Z,97639.88
2022-08-08T06:19:47.793Z,97645.63
2022-08-08T06:25:01.203Z,97644.25
2022-08-08T06:27:57.719Z,97638.22
2022-08-08T06:30:28.568Z,97645.59
2022-08-08T06:32:57.646Z,97649.66
2022-08-08T06:36:08.191Z,97656.94
2022-08-08T06:38:19.240Z,97655.47
2022-08-08T06:40:54.119Z,97655.34
2022-08-08T06:43:28.763Z,97653.47
2022-08-08T06:46:02.121Z,97658.91
2022-08-08T06:48:29.551Z,97655.88
2022-08-08T06:50:57.976Z,97652.25
2022-08-08T06:53:39.327Z,97652.88
2022-08-08T06:56:09.151Z,97662.19
2022-08-08T06:58:37.030Z,97664.63
2022-08-08T07:01:11.767Z,97662.88
2022-08-08T07:04:36.371Z,97668.38
2022-08-08T07:07:10.384Z,97667.59
2022-08-08T07:09:56.429Z,97667.81
2022-08-08T07:12:40.948Z,97666.97
2022-08-08T07:15:32.529Z,97669.06
2022-08-08T07:18:35.112Z,97671.91
2022-08-08T07:21:02.182Z,97662.09
2022-08-08T07:24:01.178Z,97669.84
2022-08-08T07:26:35.670Z,97667.19
2022-08-08T07:29:05.506Z,97670.38
2022-08-08T07:31:36.456Z,97682.91
2022-08-08T07:34:08.633Z,97677.59
2022-08-08T07:36:35.876Z,97684.00
2022-08-08T07:39:05.623Z,97678.59
2022-08-08T07:41:58.790Z,97678.44
2022-08-08T07:44:37.473Z,97670.63
2022-08-08T07:47:08.031Z,97668.91
2022-08-08T07:49:34.767Z,97673.44
2022-08-08T07:52:03.240Z,97675.06
2022-08-08T07:54:45.942Z,97673.97
2022-08-08T07:57:17.319Z,97676.06
2022-08-08T08:00:16.201Z,97670.75
2022-08-08T08:02:47.703Z,97673.41
2022-08-08T08:05:33.278Z,97675.88
2022-08-08T08:08:06.907Z,97668.00
2022-08-08T08:10:36.082Z,97664.97
2022-08-08T08:13:25.146Z,97668.38
2022-08-08T08:16:04.909Z,97672.66
2022-08-08T08:18:51.686Z,97670.50
2022-08-08T08:21:19.928Z,97663.97
2022-08-08T08:24:02.958Z,97670.22
2022-08-08T08:26:29.675Z,97672.78
2022-08-08T08:28:58.807Z,97671.69
2022-08-08T08:31:25.886Z,97668.06
2022-08-08T08:33:53.161Z,97662.63
2022-08-08T08:36:21.796Z,97659.19
2022-08-08T08:38:49.242Z,97665.16
2022-08-08T08:41:20.133Z,97658.44
2022-08-08T08:44:13.517Z,97665.66
2022-08-08T08:46:41.367Z,97661.53
2022-08-08T08:49:15.738Z,97665.97
2022-08-08T08:51:51.084Z,97663.03
2022-08-08T08:54:25.200Z,97667.50
2022-08-08T08:56:53.018Z,97665.03
2022-08-08T08:59:58.878Z,97658.13
2022-08-08T09:02:29.986Z,97666.34
2022-08-08T09:05:03.648Z,97661.22
2022-08-08T09:07:39.138Z,97665.25
2022-08-08T09:10:28.891Z,97671.13
2022-08-08T09:12:56.260Z,97666.69
2022-08-08T09:15:41.568Z,97669.63
2022-08-08T09:18:11.079Z,97671.34
2022-08-08T09:21:59.246Z,97669.09
2022-08-08T09:23:33.626Z,97664.88
2022-08-08T09:26:56.535Z,97663.63
2022-08-08T09:29:24.948Z,97666.22
2022-08-08T09:31:56.841Z,97660.44
2022-08-08T09:34:32.483Z,97660.69
2022-08-08T09:37:57.336Z,97665.28
2022-08-08T09:40:10.859Z,97665.56
2022-08-08T09:42:51.107Z,97671.59
2022-08-08T09:45:55.174Z,97668.53
2022-08-08T09:48:26.951Z,97655.75
2022-08-08T09:50:59.185Z,97666.22
2022-08-08T09:53:59.383Z,97671.59
2022-08-08T09:56:49.005Z,97669.34
2022-08-08T10:00:02.854Z,97656.53
2022-08-08T10:02:47.765Z,97661.88
2022-08-08T10:08:50.430Z,97645.75
2022-08-08T10:18:40.591Z,97639.09
2022-08-08T10:21:25.596Z,97650.50
2022-08-08T10:24:28.351Z,97642.41
2022-08-08T10:27:00.774Z,97646.28
2022-08-08T10:29:58.350Z,97649.66
2022-08-08T10:32:39.095Z,97654.28
2022-08-08T10:35:20.475Z,97651.56
2022-08-08T10:38:07.922Z,97655.38
2022-08-08T10:40:37.901Z,97651.53
2022-08-08T10:43:06.655Z,97645.38
2022-08-08T10:45:55.793Z,97646.78
2022-08-08T10:48:58.353Z,97631.84
2022-08-08T10:51:24.346Z,97639.66
2022-08-08T10:53:57.391Z,97644.16
2022-08-08T10:56:26.949Z,97641.81
2022-08-08T10:58:59.745Z,97649.38
2022-08-08T11:01:33.657Z,97628.59
2022-08-08T11:04:02.533Z,97638.94
2022-08-08T11:06:35.763Z,97636.50
2022-08-08T11:09:04.051Z,97640.69
2022-08-08T11:12:05.730Z,97638.03
2022-08-08T11:14:32.147Z,97632.66
2022-08-08T11:16:58.931Z,97629.00
2022-08-08T11:19:27.858Z,97629.38
2022-08-08T11:21:56.471Z,97635.63
2022-08-08T11:24:25.185Z,97629.22
2022-08-08T11:26:56.266Z,97635.41
2022-08-08T11:29:41.566Z,97629.56
2022-08-08T11:32:14.360Z,97625.16
2022-08-08T11:35:24.438Z,97622.09
2022-08-08T11:38:36.161Z,97627.69
2022-08-08T11:40:21.479Z,97623.06
2022-08-08T11:42:54.649Z,97620.56
2022-08-08T11:45:22.611Z,97618.66
2022-08-08T11:48:04.492Z,97621.28
2022-08-08T11:50:34.010Z,97622.81
2022-08-08T11:53:05.857Z,97617.66
2022-08-08T11:55:36.388Z,97614.66
2022-08-08T11:58:15.232Z,97621.16
2022-08-08T12:00:51.167Z,97603.59
2022-08-08T12:03:20.994Z,97609.44
2022-08-08T12:05:48.948Z,97613.59
2022-08-08T12:08:17.168Z,97600.59
2022-08-08T12:10:49.034Z,97608.84
2022-08-08T12:13:33.390Z,97602.56
2022-08-08T12:16:16.976Z,97606.59
2022-08-08T12:18:55.020Z,97596.63
2022-08-08T12:21:25.832Z,97605.75
2022-08-08T12:24:14.783Z,97607.63
2022-08-08T12:26:50.077Z,97608.00
2022-08-08T12:29:41.013Z,97598.63
2022-08-08T12:32:20.629Z,97608.81
2022-08-08T12:35:13.697Z,97608.97
2022-08-08T12:38:01.418Z,97609.78
2022-08-08T12:40:38.061Z,97603.75
2022-08-08T12:43:40.179Z,97596.38
2022-08-08T12:46:19.303Z,97595.88
2022-08-08T12:51:59.347Z,97594.72
2022-08-08T12:54:36.825Z,97596.28
2022-08-08T12:57:14.219Z,97594.22
2022-08-08T13:00:03.517Z,97591.09
2022-08-08T13:02:37.007Z,97594.59
2022-08-08T13:05:25.518Z,97588.78
2022-08-08T13:08:02.373Z,97592.88
2022-08-08T13:10:32.950Z,97595.19
2022-08-08T13:13:05.813Z,97587.13
2022-08-08T13:15:35.536Z,97588.81
2022-08-08T13:18:10.392Z,97586.50
2022-08-08T13:20:48.936Z,97585.50
2022-08-08T13:23:36.645Z,97581.28
2022-08-08T13:26:15.093Z,97579.88
2022-08-08T13:28:42.856Z,97577.53
2022-08-08T13:31:16.564Z,97574.19
2022-08-08T13:33:47.315Z,97570.53
2022-08-08T13:36:17.949Z,97576.66
2022-08-08T13:38:53.034Z,97567.19
2022-08-08T13:41:19.725Z,97572.50
2022-08-08T13:43:50.809Z,97573.53
2022-08-08T13:46:27.249Z,97562.00
2022-08-08T13:49:12.283Z,97564.16
2022-08-08T13:51:54.223Z,97567.25
2022-08-08T13:54:22.729Z,97567.38
2022-08-08T13:58:00.779Z,97562.28
2022-08-08T14:00:19.014Z,97557.84
2022-08-08T14:02:57.312Z,97554.56
2022-08-08T14:05:28.601Z,97558.88
2022-08-08T14:08:16.320Z,97563.16
2022-08-08T14:10:43.622Z,97559.03
2022-08-08T14:13:30.628Z,97557.44
2022-08-08T14:16:16.127Z,97551.09
2022-08-08T14:19:00.894Z,97553.38
2022-08-08T14:21:49.037Z,97552.22
2022-08-08T14:24:32.149Z,97552.66
2022-08-08T14:26:58.670Z,97557.38
2022-08-08T14:29:30.119Z,97551.00
2022-08-08T14:32:11.487Z,97550.13
2022-08-08T14:34:42.221Z,97552.72
2022-08-08T14:37:09.873Z,97548.75
2022-08-08T14:40:06.103Z,97549.31
2022-08-08T14:42:47.298Z,97554.97
2022-08-08T14:45:29.031Z,97543.59
2022-08-08T14:48:04.298Z,97552.69
2022-08-08T14:50:37.905Z,97551.16
2022-08-08T14:53:13.453Z,97561.03
2022-08-08T14:55:42.281Z,97550.81
2022-08-08T14:58:11.989Z,97554.47
2022-08-08T15:00:45.023Z,97561.69
2022-08-08T15:03:16.279Z,97562.03
2022-08-08T15:05:53.423Z,97564.59
2022-08-08T15:08:35.484Z,97560.22
2022-08-08T15:11:09.200Z,97559.66
2022-08-08T15:13:40.892Z,97555.56
2022-08-08T15:16:23.333Z,97563.19
2022-08-08T15:18:51.743Z,97565.84
2022-08-08T15:21:20.668Z,97569.09
2022-08-08T15:23:51.109Z,97577.06
2022-08-08T15:26:20.207Z,97564.72
2022-08-08T15:28:50.887Z,97574.19
2022-08-08T15:31:25.678Z,97568.78
2022-08-08T15:34:08.481Z,97565.94
2022-08-08T15:36:35.397Z,97575.53
2022-08-08T15:39:03.907Z,97573.56
2022-08-08T15:41:43.467Z,97568.69
2022-08-08T15:44:13.384Z,97571.94
2022-08-08T15:46:45.671Z,97566.16
2022-08-08T15:49:20.504Z,97570.53
2022-08-08T15:51:48.371Z,97570.13
2022-08-08T15:54:18.908Z,97558.13
2022-08-08T15:57:04.138Z,97565.34
2022-08-08T16:00:06.702Z,97566.91
2022-08-08T16:02:21.522Z,97560.16
2022-08-08T16:04:48.383Z,97566.94
2022-08-08T16:07:21.197Z,97559.94
2022-08-08T16:13:03.642Z,97556.41
2022-08-08T16:13:28.723Z,97558.50
2022-08-08T16:15:20.911Z,97563.63
2022-08-08T16:18:06.741Z,97568.09
2022-08-08T16:20:36.198Z,97569.50
2022-08-08T16:23:02.934Z,97564.13
2022-08-08T16:25:46.400Z,97563.66
2022-08-08T16:28:22.793Z,97564.59
2022-08-08T16:31:00.800Z,97573.59
2022-08-08T16:33:39.154Z,97563.09
2022-08-08T16:36:08.934Z,97567.56
2022-08-08T16:38:44.544Z,97573.00
2022-08-08T16:41:18.428Z,97571.47
2022-08-08T16:43:50.756Z,97568.47
2022-08-08T16:46:42.886Z,97576.22
2022-08-08T16:49:08.977Z,97569.53
2022-08-08T16:55:01.956Z,97565.47
2022-08-08T16:55:04.473Z,97569.44
2022-08-08T16:58:11.874Z,97573.03
2022-08-08T17:00:01.321Z,97577.41
2022-08-08T17:02:39.541Z,97571.16
2022-08-08T17:05:13.003Z,97583.19
2022-08-08T17:07:42.001Z,97583.78
2022-08-08T17:10:16.961Z,97583.78
2022-08-08T17:12:47.055Z,97584.31
2022-08-08T17:15:21.081Z,97590.69
2022-08-08T17:18:02.673Z,97589.69
2022-08-08T17:20:31.887Z,97589.97
2022-08-08T17:23:16.407Z,97588.72
2022-08-08T17:25:52.518Z,97592.16
2022-08-08T17:28:28.812Z,97596.38
2022-08-08T17:31:43.341Z,97606.31
2022-08-08T17:34:53.240Z,97607.88
2022-08-08T17:37:00.172Z,97605.38
2022-08-08T17:40:04.495Z,97609.28
2022-08-08T17:42:12.717Z,97608.69
2022-08-08T17:44:39.867Z,97614.47
2022-08-08T17:47:10.961Z,97617.66
2022-08-08T17:49:43.582Z,97619.84
2022-08-08T17:52:10.615Z,97626.41
2022-08-08T17:54:37.295Z,97624.97
2022-08-08T17:57:04.036Z,97631.88
2022-08-08T17:59:36.135Z,97630.72
2022-08-08T18:02:04.140Z,97632.81
2022-08-08T18:04:32.938Z,97635.41
2022-08-08T18:08:02.649Z,97640.44
2022-08-08T18:09:54.148Z,97634.78
2022-08-08T18:12:21.782Z,97642.31
2022-08-08T18:14:50.635Z,97644.00
2022-08-08T18:17:28.737Z,97646.22
2022-08-08T18:20:43.703Z,97652.13
2022-08-08T18:22:53.381Z,97652.94
2022-08-08T18:25:19.987Z,97657.66
2022-08-08T18:27:46.533Z,97651.75
2022-08-08T18:30:13.297Z,97651.72
2022-08-08T18:32:42.145Z,97656.56
2022-08-08T18:35:15.787Z,97666.75
2022-08-08T18:37:48.158Z,97667.53
2022-08-08T18:40:15.334Z,97671.84
2022-08-08T18:42:50.105Z,97679.88
2022-08-08T18:46:52.464Z,97678.25
2022-08-08T18:48:07.683Z,97672.41
2022-08-08T18:50:39.696Z,97680.41
2022-08-08T18:53:22.475Z,97684.88
2022-08-08T18:55:49.124Z,97685.91
2022-08-08T18:58:15.806Z,97698.22
2022-08-08T19:00:46.435Z,97699.94
2022-08-08T19:03:13.553Z,97705.59
2022-08-08T19:05:45.539Z,97704.53
2022-08-08T19:08:23.921Z,97704.53
2022-08-08T19:10:53.731Z,97698.47
2022-08-08T19:13:24.306Z,97706.75
2022-08-08T19:15:55.586Z,97711.50
2022-08-08T19:18:32.309Z,97705.13
2022-08-08T19:21:30.001Z,97718.13
2022-08-08T19:23:56.137Z,97716.63
2022-08-08T19:26:29.088Z,97713.69
2022-08-08T19:28:56.322Z,97718.78
2022-08-08T19:31:31.794Z,97708.81
2022-08-08T19:34:36.252Z,97717.91
2022-08-08T19:36:52.133Z,97722.53
2022-08-08T19:39:19.404Z,97721.97
2022-08-08T19:41:46.327Z,97719.31
2022-08-08T19:44:26.804Z,97715.41
2022-08-08T19:47:01.587Z,97720.97
2022-08-08T19:49:29.158Z,97724.22
2022-08-08T19:52:04.578Z,97726.72
2022-08-08T19:54:32.004Z,97720.81
2022-08-08T19:56:58.924Z,97727.13
2022-08-08T19:59:31.030Z,97737.78
2022-08-08T20:02:04.437Z,97730.72
2022-08-08T20:04:32.367Z,97735.66
2022-08-08T20:07:05.069Z,97732.09
2022-08-08T20:09:56.098Z,97729.28
2022-08-08T20:12:32.854Z,97734.41
2022-08-08T20:15:16.897Z,97735.09
2022-08-08T20:17:45.811Z,97742.19
2022-08-08T20:20:18.863Z,97742.00
2022-08-08T20:22:53.848Z,97747.25
2022-08-08T20:25:22.702Z,97742.69
2022-08-08T20:27:53.954Z,97744.47
2022-08-08T20:30:53.744Z,97745.16
2022-08-08T20:33:19.841Z,97740.66
2022-08-08T20:35:58.629Z,97738.78
2022-08-08T20:38:32.965Z,97732.75
2022-08-08T20:41:05.669Z,97742.41
2022-08-08T20:43:49.406Z,97743.84
2022-08-08T20:46:17.367Z,97738.38
2022-08-08T20:48:46.715Z,97738.31
2022-08-08T20:51:14.345Z,97732.41
2022-08-08T20:53:59.262Z,97744.03
2022-08-08T20:56:35.745Z,97748.59
2022-08-08T20:59:16.058Z,97751.34
2022-08-08T21:02:06.403Z,97747.25
2022-08-08T21:04:35.264Z,97755.34
2022-08-08T21:07:04.947Z,97750.16
2022-08-08T21:10:02.148Z,97747.69
2022-08-08T21:12:33.062Z,97749.09
2022-08-08T21:15:07.066Z,97741.50
2022-08-08T21:17:36.771Z,97740.53
2022-08-08T21:20:04.260Z,97747.22
2022-08-08T21:22:30.928Z,97738.50
2022-08-08T21:24:58.397Z,97747.75
2022-08-08T21:28:06.309Z,97744.53
2022-08-08T21:30:19.369Z,97752.03
2022-08-08T21:32:51.886Z,97760.19
2022-08-08T21:36:14.288Z,97751.84
2022-08-08T21:38:08.486Z,97756.06
2022-08-08T21:40:55.075Z,97761.09
2022-08-08T21:43:31.346Z,97763.03
2022-08-08T21:48:05.598Z,97770.41
2022-08-08T21:48:53.309Z,97777.66
2022-08-08T21:54:17.815Z,97776.56
2022-08-08T21:54:31.996Z,97776.56
2022-08-08T21:56:59.301Z,97772.47
2022-08-08T21:59:28.493Z,97771.25
2022-08-08T22:02:13.391Z,97775.59
2022-08-08T22:04:42.637Z,97769.94
2022-08-08T22:07:09.162Z,97765.34
2022-08-08T22:09:41.278Z,97767.38
2022-08-08T22:12:15.049Z,97769.63
2022-08-08T22:14:49.859Z,97769.03
2022-08-08T22:17:18.347Z,97762.13
2022-08-08T22:20:11.087Z,97764.28
2022-08-08T22:22:38.231Z,97764.59
2022-08-08T22:25:19.649Z,97758.09
2022-08-08T22:28:04.077Z,97754.25
2022-08-08T22:30:42.343Z,97758.09
2022-08-08T22:34:11.225Z,97762.25
2022-08-08T22:36:04.327Z,97758.84
2022-08-08T22:38:48.568Z,97764.66
2022-08-08T22:41:21.582Z,97768.75
2022-08-08T22:44:02.972Z,97765.09
2022-08-08T22:46:38.912Z,97758.72
2022-08-08T22:49:06.870Z,97757.91
2022-08-08T22:51:42.707Z,97750.00
2022-08-08T22:54:31.232Z,97752.88
2022-08-08T22:57:00.209Z,97750.97
2022-08-08T22:59:27.160Z,97760.72
2022-08-08T23:02:13.092Z,97757.06
2022-08-08T23:04:55.873Z,97760.09
2022-08-08T23:07:24.225Z,97763.78
2022-08-08T23:10:11.177Z,97762.25
2022-08-08T23:12:40.418Z,97773.81
2022-08-08T23:16:39.725Z,97770.16
2022-08-08T23:17:58.032Z,97762.63
2022-08-08T23:20:27.417Z,97776.94
2022-08-08T23:22:55.129Z,97770.47
2022-08-08T23:25:23.481Z,97764.94
2022-08-08T23:27:50.017Z,97771.09
2022-08-08T23:30:22.718Z,97768.34
2022-08-08T23:32:51.217Z,97770.56
2022-08-08T23:35:18.859Z,97774.72
2022-08-08T23:38:01.143Z,97783.06
2022-08-08T23:40:30.367Z,97777.25
2022-08-08T23:42:56.947Z,97774.63
2022-08-08T23:49:00.409Z,97771.88
2022-08-08T23:49:08.767Z,97769.56
2022-08-08T23:50:58.023Z,97775.47
2022-08-08T23:54:06.319Z,97779.94
2022-08-08T23:56:12.127Z,97768.38
2022-08-08T23:58:39.798Z,97773.03
